Devers, Texas
Current Conditions -  °F | °C
As of 9:35 PM on Monday 22 Dec 2014 (Local Time) from KBMT Reporting Station
Broken Clouds Broken Clouds  
Wind Chill: 17°   Ceiling: 800
Heat Index: 17°   Visibility: 10mi
Dew Point: 16°   Wind: 5mph
Humidity: 96%   Direction: 260°W
Pressure: 29.68"   Gusts: NA
Location:  30.03°N, 94.59°W
Report Text: KBMT 230335Z AUTO 26004KT 10SM BKN008 17/16 A2968 RMK AO2 T01660160
Loading
Personal Weather Stations






























Interactive Weather Map New forecast layout! Learn more

10-Day Weather Forecast

Advertisements
Track Severe Weather on mobile